createdAt,value
2018-06-19T00:01:43.193Z,16.70
2018-06-19T00:04:11.417Z,16.70
2018-06-19T00:06:39.629Z,16.70
2018-06-19T00:09:08.691Z,16.70
2018-06-19T00:11:36.931Z,16.70
2018-06-19T00:14:05.220Z,16.70
2018-06-19T00:16:33.757Z,16.70
2018-06-19T00:19:02.505Z,16.70
2018-06-19T00:21:36.061Z,16.60
2018-06-19T00:24:04.314Z,16.60
2018-06-19T00:26:32.574Z,16.50
2018-06-19T00:29:01.113Z,16.60
2018-06-19T00:31:29.380Z,16.60
2018-06-19T00:33:57.648Z,16.50
2018-06-19T00:36:25.877Z,16.40
2018-06-19T00:38:54.245Z,16.50
2018-06-19T00:41:22.435Z,16.50
2018-06-19T00:43:50.674Z,16.50
2018-06-19T00:46:20.729Z,16.40
2018-06-19T00:48:48.949Z,16.20
2018-06-19T00:51:17.652Z,16.10
2018-06-19T00:53:45.858Z,16.10
2018-06-19T00:56:56.584Z,16.10
2018-06-19T00:59:24.915Z,16.10
2018-06-19T01:01:54.010Z,16.10
2018-06-19T01:04:22.193Z,16.20
2018-06-19T01:06:50.507Z,16.30
2018-06-19T01:09:18.781Z,16.10
2018-06-19T01:11:47.001Z,16.00
2018-06-19T01:14:15.241Z,16.00
2018-06-19T01:16:43.417Z,16.10
2018-06-19T01:19:11.677Z,16.10
2018-06-19T01:21:39.937Z,16.00
2018-06-19T01:24:08.198Z,16.00
2018-06-19T01:26:36.417Z,16.00
2018-06-19T01:29:04.612Z,16.10
2018-06-19T01:31:32.880Z,16.00
2018-06-19T01:34:01.074Z,15.90
2018-06-19T01:36:29.292Z,15.90
2018-06-19T01:38:57.496Z,15.90
2018-06-19T01:41:25.710Z,15.90
2018-06-19T01:43:54.314Z,15.90
2018-06-19T01:46:22.505Z,15.70
2018-06-19T01:48:50.748Z,15.60
2018-06-19T01:51:18.950Z,15.70
2018-06-19T01:53:47.174Z,15.70
2018-06-19T01:56:15.386Z,15.80
2018-06-19T01:58:43.634Z,15.70
2018-06-19T02:01:11.837Z,15.60
2018-06-19T02:03:40.051Z,15.70
2018-06-19T02:06:08.324Z,15.70
2018-06-19T02:08:36.577Z,15.60
2018-06-19T02:11:04.853Z,15.50
2018-06-19T02:13:33.026Z,15.70
2018-06-19T02:16:01.321Z,15.50
2018-06-19T02:18:29.567Z,15.40
2018-06-19T02:20:57.877Z,15.00
2018-06-19T02:23:26.146Z,14.90
2018-06-19T02:25:54.349Z,14.90
2018-06-19T02:28:22.544Z,14.90
2018-06-19T02:30:50.741Z,15.00
2018-06-19T02:33:19.071Z,15.10
2018-06-19T02:35:47.608Z,15.10
2018-06-19T02:38:15.878Z,15.20
2018-06-19T02:40:44.170Z,15.20
2018-06-19T02:43:12.733Z,15.20
2018-06-19T02:45:41.005Z,15.10
2018-06-19T02:48:09.230Z,14.90
2018-06-19T02:53:05.635Z,14.90
2018-06-19T02:55:33.925Z,14.80
2018-06-19T02:58:02.160Z,14.80
2018-06-19T03:00:30.351Z,14.90
2018-06-19T03:02:58.621Z,15.10
2018-06-19T03:05:26.820Z,15.20
2018-06-19T03:07:55.037Z,15.30
2018-06-19T03:10:23.232Z,15.30
2018-06-19T03:12:51.419Z,15.40
2018-06-19T03:15:19.636Z,15.30
2018-06-19T03:17:47.812Z,15.30
2018-06-19T03:20:16.068Z,15.40
2018-06-19T03:22:44.693Z,15.50
2018-06-19T03:25:12.928Z,15.40
2018-06-19T03:27:41.177Z,15.20
2018-06-19T03:30:09.444Z,15.20
2018-06-19T03:32:37.689Z,15.40
2018-06-19T03:35:05.901Z,15.40
2018-06-19T03:37:34.149Z,15.30
2018-06-19T03:40:02.432Z,15.10
2018-06-19T03:42:31.409Z,15.10
2018-06-19T03:44:59.641Z,15.10
2018-06-19T03:47:27.889Z,15.20
2018-06-19T03:49:56.116Z,15.10
2018-06-19T03:52:24.297Z,15.10
2018-06-19T03:54:52.517Z,15.20
2018-06-19T03:57:20.693Z,15.10
2018-06-19T03:59:48.907Z,15.20
2018-06-19T04:02:17.112Z,15.30
2018-06-19T04:04:45.350Z,15.30
2018-06-19T04:07:17.900Z,15.30
2018-06-19T04:09:46.109Z,15.40
2018-06-19T04:12:14.345Z,15.50
2018-06-19T04:14:42.811Z,15.70
2018-06-19T04:17:19.488Z,15.80
2018-06-19T04:19:47.870Z,15.90
2018-06-19T04:22:17.736Z,16.10
2018-06-19T04:24:46.019Z,16.30
2018-06-19T04:27:14.257Z,16.30
2018-06-19T04:29:42.670Z,16.30
2018-06-19T04:32:10.896Z,16.30
2018-06-19T04:34:39.122Z,16.30
2018-06-19T04:37:07.364Z,16.40
2018-06-19T04:39:35.528Z,16.40
2018-06-19T04:42:03.832Z,16.50
2018-06-19T04:44:32.097Z,16.50
2018-06-19T04:47:00.354Z,16.40
2018-06-19T04:49:28.599Z,16.30
2018-06-19T04:51:56.839Z,16.40
2018-06-19T04:54:25.084Z,16.50
2018-06-19T04:56:53.305Z,16.50
2018-06-19T04:59:21.560Z,16.70
2018-06-19T05:01:49.863Z,16.70
2018-06-19T05:04:18.113Z,16.60
2018-06-19T05:06:46.296Z,16.50
2018-06-19T05:09:14.857Z,16.60
2018-06-19T05:11:44.539Z,16.70
2018-06-19T05:14:12.789Z,16.90
2018-06-19T05:16:41.705Z,16.90
2018-06-19T05:19:10.130Z,16.90
2018-06-19T05:21:38.462Z,17.00
2018-06-19T05:24:06.670Z,17.10
2018-06-19T05:26:34.949Z,17.00
2018-06-19T05:29:03.181Z,16.90
2018-06-19T05:31:31.613Z,17.10
2018-06-19T05:34:00.096Z,17.40
2018-06-19T05:36:28.275Z,17.50
2018-06-19T05:38:56.494Z,17.60
2018-06-19T05:41:24.661Z,17.80
2018-06-19T05:43:52.885Z,17.70
2018-06-19T05:46:21.136Z,17.80
2018-06-19T05:48:49.341Z,17.70
2018-06-19T05:51:17.605Z,17.90
2018-06-19T05:53:45.885Z,18.00
2018-06-19T05:56:14.158Z,18.10
2018-06-19T05:58:42.389Z,18.50
2018-06-19T06:01:10.597Z,18.70
2018-06-19T06:03:38.858Z,19.00
2018-06-19T06:06:07.126Z,19.50
2018-06-19T06:08:35.447Z,20.10
2018-06-19T06:11:03.769Z,20.50
2018-06-19T06:13:32.009Z,20.80
2018-06-19T06:16:00.242Z,20.80
2018-06-19T06:18:28.513Z,20.80
2018-06-19T06:20:56.771Z,20.90
2018-06-19T06:23:24.992Z,20.90
2018-06-19T06:25:53.230Z,21.20
2018-06-19T06:28:21.442Z,21.40
2018-06-19T06:30:49.691Z,21.50
2018-06-19T06:33:17.939Z,21.50
2018-06-19T06:35:46.238Z,21.40
2018-06-19T06:38:14.447Z,21.20
2018-06-19T06:40:42.861Z,21.10
2018-06-19T06:43:11.115Z,20.90
2018-06-19T06:45:39.315Z,20.90
2018-06-19T06:48:07.581Z,21.20
2018-06-19T06:50:35.823Z,21.60
2018-06-19T06:53:04.083Z,21.90
2018-06-19T06:55:32.315Z,22.20
2018-06-19T06:58:00.613Z,22.50
2018-06-19T07:00:28.893Z,22.80
2018-06-19T07:02:57.097Z,22.80
2018-06-19T07:05:25.378Z,22.50
2018-06-19T07:07:53.611Z,22.70
2018-06-19T07:10:21.887Z,22.90
2018-06-19T07:12:50.113Z,23.00
2018-06-19T07:15:18.355Z,23.10
2018-06-19T07:17:46.669Z,23.30
2018-06-19T07:20:14.986Z,23.50
2018-06-19T07:22:43.306Z,23.60
2018-06-19T07:25:11.530Z,23.50
2018-06-19T07:27:39.811Z,23.50
2018-06-19T07:30:08.026Z,23.40
2018-06-19T07:32:36.286Z,23.60
2018-06-19T07:35:04.540Z,23.60
2018-06-19T07:37:32.750Z,23.50
2018-06-19T07:40:01.018Z,23.60
2018-06-19T07:42:29.219Z,23.50
2018-06-19T07:44:57.437Z,23.80
2018-06-19T07:47:25.645Z,23.60
2018-06-19T07:49:53.882Z,23.60
2018-06-19T07:52:22.129Z,23.70
2018-06-19T07:54:50.331Z,23.60
2018-06-19T07:57:18.643Z,23.40
2018-06-19T07:59:46.852Z,23.20
2018-06-19T08:02:15.122Z,23.30
2018-06-19T08:04:43.434Z,23.20
2018-06-19T08:07:11.694Z,23.60
2018-06-19T08:09:40.523Z,23.50
2018-06-19T08:12:08.736Z,23.80
2018-06-19T08:14:37.299Z,24.30
2018-06-19T08:17:05.485Z,24.60
2018-06-19T08:19:33.714Z,24.50
2018-06-19T08:22:02.005Z,24.20
2018-06-19T08:24:30.334Z,24.20
2018-06-19T08:26:58.604Z,24.00
2018-06-19T08:29:26.812Z,23.90
2018-06-19T08:31:55.058Z,23.70
2018-06-19T08:34:23.319Z,23.70
2018-06-19T08:36:51.560Z,23.50
2018-06-19T08:39:19.743Z,23.60
2018-06-19T08:41:48.055Z,24.00
2018-06-19T08:44:16.307Z,24.30
2018-06-19T08:46:44.525Z,24.70
2018-06-19T08:49:13.205Z,24.80
2018-06-19T08:51:41.417Z,24.40
2018-06-19T08:54:09.684Z,24.60
2018-06-19T08:56:37.874Z,24.60
2018-06-19T08:59:06.102Z,24.80
2018-06-19T09:01:34.661Z,25.10
2018-06-19T09:04:03.310Z,25.20
2018-06-19T09:06:31.677Z,25.30
2018-06-19T09:08:59.903Z,25.20
2018-06-19T09:11:28.145Z,24.60
2018-06-19T09:13:56.340Z,24.60
2018-06-19T09:16:24.597Z,24.60
2018-06-19T09:18:52.841Z,24.60
2018-06-19T09:21:21.059Z,24.60
2018-06-19T09:23:49.879Z,24.20
2018-06-19T09:26:18.177Z,23.90
2018-06-19T09:28:46.424Z,24.20
2018-06-19T09:31:14.722Z,24.40
2018-06-19T09:33:42.983Z,24.70
2018-06-19T09:36:11.269Z,24.90
2018-06-19T09:38:39.541Z,25.10
2018-06-19T09:41:07.967Z,25.00
2018-06-19T09:43:36.167Z,25.30
2018-06-19T09:46:04.547Z,25.30
2018-06-19T09:48:32.756Z,25.30
2018-06-19T09:51:01.001Z,25.60
2018-06-19T09:53:29.369Z,25.80
2018-06-19T09:55:57.801Z,26.00
2018-06-19T10:00:54.791Z,25.30
2018-06-19T10:03:23.398Z,25.10
2018-06-19T10:05:51.624Z,24.90
2018-06-19T10:08:19.925Z,24.80
2018-06-19T10:10:48.180Z,24.90
2018-06-19T10:13:16.395Z,24.90
2018-06-19T10:15:44.705Z,24.90
2018-06-19T10:18:12.908Z,24.80
2018-06-19T10:20:41.170Z,25.10
2018-06-19T10:23:09.384Z,25.10
2018-06-19T10:25:37.672Z,25.20
2018-06-19T10:28:06.050Z,25.40
2018-06-19T10:30:34.289Z,25.70
2018-06-19T10:33:02.550Z,25.70
2018-06-19T10:35:30.811Z,25.70
2018-06-19T10:37:59.024Z,25.60
2018-06-19T10:40:27.289Z,25.80
2018-06-19T10:42:55.527Z,26.00
2018-06-19T10:45:23.809Z,25.90
2018-06-19T10:47:51.985Z,25.90
2018-06-19T10:50:20.209Z,25.80
2018-06-19T10:52:48.418Z,25.90
2018-06-19T10:55:16.690Z,25.90
2018-06-19T10:57:44.924Z,25.90
2018-06-19T11:00:13.166Z,26.00
2018-06-19T11:02:41.418Z,26.10
2018-06-19T11:05:09.709Z,26.30
2018-06-19T11:07:37.954Z,26.70
2018-06-19T11:10:06.205Z,26.50
2018-06-19T11:12:34.477Z,26.30
2018-06-19T11:15:02.678Z,26.10
2018-06-19T11:17:30.916Z,25.70
2018-06-19T11:19:59.710Z,25.80
2018-06-19T11:22:27.990Z,25.50
2018-06-19T11:24:56.233Z,25.40
2018-06-19T11:27:24.413Z,25.40
2018-06-19T11:29:52.750Z,25.30
2018-06-19T11:32:20.950Z,25.20
2018-06-19T11:34:49.264Z,25.30
2018-06-19T11:37:17.509Z,25.30
2018-06-19T11:39:45.730Z,24.90
2018-06-19T11:42:14.020Z,24.40
2018-06-19T11:44:42.242Z,24.50
2018-06-19T11:47:10.564Z,24.70
2018-06-19T11:49:38.838Z,24.80
2018-06-19T11:52:07.134Z,24.60
2018-06-19T11:54:35.417Z,24.70
2018-06-19T11:57:03.658Z,24.50
2018-06-19T11:59:32.201Z,24.50
2018-06-19T12:02:00.603Z,24.50
2018-06-19T12:04:28.860Z,24.40
2018-06-19T12:06:57.096Z,24.10
2018-06-19T12:09:25.362Z,24.10
2018-06-19T12:11:53.604Z,24.40
2018-06-19T12:14:21.845Z,24.60
2018-06-19T12:16:50.125Z,24.80
2018-06-19T12:19:18.378Z,25.20
2018-06-19T12:21:46.613Z,25.20
2018-06-19T12:24:14.900Z,25.50
2018-06-19T12:26:43.205Z,25.50
2018-06-19T12:29:11.490Z,25.50
2018-06-19T12:31:39.762Z,25.60
2018-06-19T12:34:08.064Z,25.60
2018-06-19T12:36:36.383Z,25.50
2018-06-19T12:39:07.320Z,25.70
2018-06-19T12:41:47.544Z,26.00
2018-06-19T12:44:15.813Z,26.20
2018-06-19T12:46:44.157Z,26.40
2018-06-19T12:49:12.426Z,26.50
2018-06-19T12:51:59.149Z,26.70
2018-06-19T12:55:38.400Z,26.60
2018-06-19T12:58:07.538Z,26.70
2018-06-19T13:00:35.826Z,27.10
2018-06-19T13:03:15.065Z,27.30
2018-06-19T13:05:54.425Z,27.40
2018-06-19T13:08:22.714Z,26.90
2018-06-19T13:10:50.965Z,26.30
2018-06-19T13:13:31.369Z,26.00
2018-06-19T13:15:59.713Z,26.20
2018-06-19T13:18:40.421Z,26.20
2018-06-19T13:21:08.791Z,26.20
2018-06-19T13:23:37.096Z,26.20
2018-06-19T13:26:05.336Z,25.90
2018-06-19T13:29:49.241Z,26.10
2018-06-19T13:32:17.566Z,26.40
2018-06-19T13:34:46.028Z,26.80
2018-06-19T13:37:14.569Z,27.10
2018-06-19T13:39:43.276Z,27.50
2018-06-19T13:42:22.954Z,27.80
2018-06-19T13:44:59.882Z,27.70
2018-06-19T13:47:28.114Z,27.50
2018-06-19T13:49:56.365Z,27.30
2018-06-19T13:52:24.553Z,27.10
2018-06-19T13:54:52.948Z,27.00
2018-06-19T13:57:35.919Z,27.10
2018-06-19T14:00:07.176Z,27.20
2018-06-19T14:02:35.438Z,27.50
2018-06-19T14:05:04.382Z,27.80
2018-06-19T14:08:04.787Z,27.90
2018-06-19T14:10:43.971Z,27.50
2018-06-19T14:13:12.377Z,27.60
2018-06-19T14:15:44.665Z,27.60
2018-06-19T14:18:13.705Z,27.90
2018-06-19T14:20:42.568Z,28.10
2018-06-19T14:23:11.143Z,28.10
2018-06-19T14:25:39.357Z,27.80
2018-06-19T14:28:07.593Z,27.90
2018-06-19T14:30:35.942Z,28.30
2018-06-19T14:33:04.243Z,28.40
2018-06-19T14:35:32.546Z,28.30
2018-06-19T14:38:00.801Z,28.00
2018-06-19T14:40:29.090Z,28.10
2018-06-19T14:42:57.328Z,28.00
2018-06-19T14:45:25.727Z,27.70
2018-06-19T14:47:53.964Z,27.60
2018-06-19T14:50:22.219Z,27.60
2018-06-19T14:52:50.444Z,27.50
2018-06-19T14:55:18.699Z,27.10
2018-06-19T14:57:46.901Z,26.90
2018-06-19T15:00:15.208Z,26.50
2018-06-19T15:02:43.433Z,26.50
2018-06-19T15:05:11.747Z,26.60
2018-06-19T15:07:47.336Z,26.60
2018-06-19T15:10:15.918Z,26.90
2018-06-19T15:12:44.198Z,27.10
2018-06-19T15:15:12.553Z,27.20
2018-06-19T15:17:40.880Z,27.30
2018-06-19T15:20:09.107Z,27.10
2018-06-19T15:22:37.393Z,26.70
2018-06-19T15:25:05.671Z,26.50
2018-06-19T15:27:33.929Z,26.40
2018-06-19T15:30:02.211Z,26.20
2018-06-19T15:32:30.483Z,26.00
2018-06-19T15:34:58.921Z,25.90
2018-06-19T15:37:27.113Z,25.60
2018-06-19T15:39:55.405Z,25.50
2018-06-19T15:42:23.624Z,25.50
2018-06-19T15:44:51.857Z,25.50
2018-06-19T15:47:20.097Z,25.50
2018-06-19T15:49:48.463Z,25.50
2018-06-19T15:52:16.784Z,25.30
2018-06-19T15:54:45.010Z,25.10
2018-06-19T15:57:13.273Z,24.90
2018-06-19T15:59:41.501Z,24.80
2018-06-19T16:02:09.848Z,24.60
2018-06-19T16:04:38.190Z,24.60
2018-06-19T16:07:06.421Z,24.60
2018-06-19T16:09:34.668Z,24.50
2018-06-19T16:14:30.957Z,24.70
2018-06-19T16:16:59.172Z,24.80
2018-06-19T16:19:27.437Z,24.80
2018-06-19T16:21:55.713Z,24.90
2018-06-19T16:24:23.911Z,25.20
2018-06-19T16:26:52.713Z,25.30
2018-06-19T16:29:21.025Z,25.40
2018-06-19T16:31:49.378Z,25.40
2018-06-19T16:34:17.605Z,25.20
2018-06-19T16:36:45.869Z,25.20
2018-06-19T16:39:14.133Z,25.10
2018-06-19T16:41:42.389Z,25.20
2018-06-19T16:44:10.634Z,25.20
2018-06-19T16:46:38.894Z,25.10
2018-06-19T16:49:07.167Z,25.10
2018-06-19T16:51:35.449Z,25.20
2018-06-19T16:54:03.777Z,25.30
2018-06-19T16:56:32.095Z,25.30
2018-06-19T16:59:00.313Z,25.40
2018-06-19T17:01:28.600Z,25.40
2018-06-19T17:03:56.848Z,25.50
2018-06-19T17:06:25.093Z,25.50
2018-06-19T17:08:53.779Z,25.30
2018-06-19T17:11:22.030Z,25.10
2018-06-19T17:13:50.321Z,24.90
2018-06-19T17:16:18.555Z,24.80
2018-06-19T17:18:46.947Z,24.80
2018-06-19T17:21:15.266Z,24.80
2018-06-19T17:23:44.736Z,24.80
2018-06-19T17:26:12.993Z,24.70
2018-06-19T17:28:41.221Z,24.60
2018-06-19T17:31:09.516Z,24.40
2018-06-19T17:33:37.751Z,24.40
2018-06-19T17:36:06.032Z,24.30
2018-06-19T17:38:35.718Z,24.30
2018-06-19T17:41:03.983Z,24.40
2018-06-19T17:43:32.170Z,24.50
2018-06-19T17:46:00.381Z,24.30
2018-06-19T17:48:28.676Z,24.10
2018-06-19T17:50:57.012Z,24.00
2018-06-19T17:53:25.261Z,23.80
2018-06-19T17:55:53.521Z,23.60
2018-06-19T17:58:21.761Z,23.50
2018-06-19T18:00:49.997Z,23.50
2018-06-19T18:03:18.250Z,23.60
2018-06-19T18:05:46.460Z,23.70
2018-06-19T18:08:14.706Z,23.60
2018-06-19T18:10:43.004Z,23.60
2018-06-19T18:13:11.232Z,23.60
2018-06-19T18:15:39.494Z,23.60
2018-06-19T18:18:07.753Z,23.40
2018-06-19T18:20:36.002Z,23.30
2018-06-19T18:23:04.835Z,23.30
2018-06-19T18:25:33.207Z,23.40
2018-06-19T18:28:01.543Z,23.40
2018-06-19T18:30:29.815Z,23.40
2018-06-19T18:32:58.141Z,23.40
2018-06-19T18:35:26.967Z,23.30
2018-06-19T18:37:55.590Z,23.30
2018-06-19T18:40:23.874Z,23.20
2018-06-19T18:42:52.176Z,23.20
2018-06-19T18:45:20.452Z,23.20
2018-06-19T18:47:49.083Z,23.20
2018-06-19T18:52:45.313Z,23.20
2018-06-19T18:55:13.545Z,23.10
2018-06-19T18:57:41.784Z,23.10
2018-06-19T19:00:10.609Z,23.00
2018-06-19T19:02:39.771Z,22.90
2018-06-19T19:05:08.998Z,22.80
2018-06-19T19:07:37.434Z,22.80
2018-06-19T19:10:11.073Z,22.70
2018-06-19T19:12:39.382Z,22.60
2018-06-19T19:15:13.225Z,22.50
2018-06-19T19:17:46.990Z,22.40
2018-06-19T19:20:16.597Z,22.40
2018-06-19T19:22:45.934Z,22.30
2018-06-19T19:25:15.063Z,22.20
2018-06-19T19:27:48.690Z,22.20
2018-06-19T19:30:16.913Z,22.10
2018-06-19T19:32:45.267Z,22.00
2018-06-19T19:35:13.494Z,22.00
2018-06-19T19:37:47.314Z,22.00
2018-06-19T19:42:44.769Z,22.00
2018-06-19T19:45:13.078Z,22.00
2018-06-19T19:47:47.635Z,22.00
2018-06-19T19:50:16.857Z,21.90
2018-06-19T19:52:46.591Z,21.90
2018-06-19T19:55:14.877Z,21.90
2018-06-19T19:57:48.493Z,21.70
2018-06-19T20:00:22.605Z,21.60
2018-06-19T20:02:51.498Z,21.60
2018-06-19T20:05:19.738Z,21.60
2018-06-19T20:07:47.946Z,21.60
2018-06-19T20:10:17.246Z,21.60
2018-06-19T20:12:46.860Z,21.50
2018-06-19T20:15:15.114Z,21.40
2018-06-19T20:17:43.381Z,21.40
2018-06-19T20:20:11.808Z,21.30
2018-06-19T20:22:40.918Z,21.20
2018-06-19T20:25:09.802Z,21.20
2018-06-19T20:27:38.094Z,21.30
2018-06-19T20:30:07.400Z,21.30
2018-06-19T20:32:35.668Z,21.20
2018-06-19T20:35:03.978Z,21.10
2018-06-19T20:37:32.340Z,20.90
2018-06-19T20:40:00.837Z,20.80
2018-06-19T20:42:29.099Z,20.80
2018-06-19T20:44:57.838Z,20.80
2018-06-19T20:47:26.719Z,20.90
2018-06-19T20:49:55.051Z,20.90
2018-06-19T20:52:23.285Z,20.90
2018-06-19T20:54:51.561Z,20.90
2018-06-19T20:57:19.796Z,20.70
2018-06-19T20:59:48.228Z,20.50
2018-06-19T21:02:16.783Z,20.30
2018-06-19T21:04:45.313Z,20.40
2018-06-19T21:07:13.700Z,20.30
2018-06-19T21:09:42.279Z,20.10
2018-06-19T21:12:10.649Z,20.10
2018-06-19T21:14:38.865Z,20.00
2018-06-19T21:17:07.482Z,20.00
2018-06-19T21:19:35.942Z,20.00
2018-06-19T21:22:04.338Z,19.80
2018-06-19T21:24:32.719Z,19.50
2018-06-19T21:27:01.009Z,19.40
2018-06-19T21:29:29.261Z,19.30
2018-06-19T21:34:25.452Z,19.30
2018-06-19T21:36:53.673Z,19.10
2018-06-19T21:39:21.992Z,19.00
2018-06-19T21:41:50.428Z,19.10
2018-06-19T21:44:18.656Z,19.20
2018-06-19T21:46:47.473Z,19.30
2018-06-19T21:49:15.728Z,19.30
2018-06-19T21:51:43.949Z,19.30
2018-06-19T21:54:12.177Z,19.40
2018-06-19T21:56:40.372Z,19.50
2018-06-19T21:59:08.634Z,19.50
2018-06-19T22:01:36.809Z,19.50
2018-06-19T22:04:05.071Z,19.40
2018-06-19T22:06:33.278Z,19.50
2018-06-19T22:09:01.541Z,19.40
2018-06-19T22:11:29.777Z,19.40
2018-06-19T22:13:58.028Z,19.50
2018-06-19T22:16:26.280Z,19.30
2018-06-19T22:18:54.500Z,19.20
2018-06-19T22:21:22.702Z,19.10
2018-06-19T22:23:50.889Z,19.00
2018-06-19T22:26:19.115Z,19.00
2018-06-19T22:28:47.302Z,19.00
2018-06-19T22:31:15.538Z,18.90
2018-06-19T22:33:44.010Z,18.90
2018-06-19T22:36:12.301Z,18.90
2018-06-19T22:41:08.500Z,19.00
2018-06-19T22:43:36.805Z,19.00
2018-06-19T22:46:05.038Z,19.00
2018-06-19T22:48:33.812Z,19.00
2018-06-19T22:51:02.532Z,19.00
2018-06-19T22:53:31.273Z,18.90
2018-06-19T22:56:00.001Z,19.00
2018-06-19T22:58:28.681Z,18.70
2018-06-19T23:00:57.400Z,18.70
2018-06-19T23:03:26.107Z,18.70
2018-06-19T23:05:54.837Z,18.60
2018-06-19T23:08:23.545Z,18.60
2018-06-19T23:10:52.237Z,18.50
2018-06-19T23:13:20.960Z,18.50
2018-06-19T23:15:49.919Z,18.60
2018-06-19T23:18:18.665Z,18.70
2018-06-19T23:20:46.850Z,18.90
2018-06-19T23:23:15.148Z,18.90
2018-06-19T23:25:43.734Z,18.90
2018-06-19T23:28:11.936Z,18.90
2018-06-19T23:30:40.165Z,18.90
2018-06-19T23:33:08.362Z,18.80
2018-06-19T23:35:36.619Z,18.70
2018-06-19T23:38:04.813Z,18.80
2018-06-19T23:40:33.043Z,18.70
2018-06-19T23:43:01.375Z,18.60
2018-06-19T23:45:29.586Z,18.40
2018-06-19T23:47:57.815Z,18.40
2018-06-19T23:50:26.052Z,18.30
2018-06-19T23:52:54.304Z,18.30
2018-06-19T23:55:22.562Z,18.30
2018-06-19T23:57:50.814Z,18.20
